Inicio METAR Ruta Wind Satelite

Informe Meteorológico

Fecha: 2024/06/18 20:02:54 Local
2024.06.19 01:02 UTC


Operación:VFR
SKNV 190000Z 19003KT 9999 FEW040 30/21 Q1007 =

SKNV 182300Z VRB02KT 9999 FEW045 33/18 Q1006
SKNV 182200Z VRB02KT 9999 VCSH FEW040 35/18 Q1006 RMK VCSH/N/NE
SKNV 182100Z 21005KT 160V260 9999 FEW040 34/19 Q1006
SKNV 182000Z 24004KT 160V300 9999 FEW040 34/19 Q1006
SKNV 181900Z 19005KT 130V250 9999 FEW040TCU 33/19 Q1007 RMK TCU/SE